sensor_id;sensor_type;location;lat;lon;timestamp;pressure;altitude;pressure_sealevel;temperature;humidity
43071;BME280;36278;47.952;21.714;2024-01-06T00:02:05;99667.91;;;5.92;100.00
43071;BME280;36278;47.952;21.714;2024-01-06T00:04:31;99669.09;;;6.01;100.00
43071;BME280;36278;47.952;21.714;2024-01-06T00:06:57;99670.69;;;6.03;100.00
43071;BME280;36278;47.952;21.714;2024-01-06T00:09:22;99659.41;;;6.01;100.00
43071;BME280;36278;47.952;21.714;2024-01-06T00:11:48;99662.84;;;5.89;100.00
43071;BME280;36278;47.952;21.714;2024-01-06T00:14:14;99663.19;;;5.97;100.00
43071;BME280;36278;47.952;21.714;2024-01-06T00:16:40;99659.25;;;5.90;100.00
43071;BME280;36278;47.952;21.714;2024-01-06T00:19:05;99657.59;;;5.89;100.00
43071;BME280;36278;47.952;21.714;2024-01-06T00:21:31;99650.09;;;5.83;100.00
43071;BME280;36278;47.952;21.714;2024-01-06T00:23:56;99652.50;;;5.86;100.00
43071;BME280;36278;47.952;21.714;2024-01-06T00:26:22;99647.47;;;5.83;100.00
43071;BME280;36278;47.952;21.714;2024-01-06T00:28:48;99653.47;;;5.85;100.00
43071;BME280;36278;47.952;21.714;2024-01-06T00:31:15;99650.53;;;5.89;100.00
43071;BME280;36278;47.952;21.714;2024-01-06T00:33:43;99661.28;;;5.86;100.00
43071;BME280;36278;47.952;21.714;2024-01-06T00:36:09;99650.84;;;5.85;100.00
43071;BME280;36278;47.952;21.714;2024-01-06T00:38:35;99652.63;;;5.84;100.00
43071;BME280;36278;47.952;21.714;2024-01-06T00:41:03;99653.78;;;5.80;100.00
43071;BME280;36278;47.952;21.714;2024-01-06T00:43:29;99650.50;;;5.77;100.00
43071;BME280;36278;47.952;21.714;2024-01-06T00:45:55;99648.81;;;5.76;100.00
43071;BME280;36278;47.952;21.714;2024-01-06T00:48:20;99645.34;;;5.75;100.00
43071;BME280;36278;47.952;21.714;2024-01-06T00:50:46;99653.91;;;5.79;100.00
43071;BME280;36278;47.952;21.714;2024-01-06T00:53:12;99646.09;;;5.77;100.00
43071;BME280;36278;47.952;21.714;2024-01-06T00:55:38;99646.19;;;5.76;100.00
43071;BME280;36278;47.952;21.714;2024-01-06T00:58:03;99649.66;;;5.76;100.00
43071;BME280;36278;47.952;21.714;2024-01-06T01:00:29;99639.66;;;5.69;100.00
43071;BME280;36278;47.952;21.714;2024-01-06T01:02:55;99653.75;;;5.68;100.00
43071;BME280;36278;47.952;21.714;2024-01-06T01:05:20;99639.31;;;5.60;100.00
43071;BME280;36278;47.952;21.714;2024-01-06T01:07:46;99649.09;;;5.58;100.00
43071;BME280;36278;47.952;21.714;2024-01-06T01:10:11;99645.53;;;5.59;100.00
43071;BME280;36278;47.952;21.714;2024-01-06T01:12:37;99643.72;;;5.60;100.00
43071;BME280;36278;47.952;21.714;2024-01-06T01:15:02;99641.75;;;5.63;100.00
43071;BME280;36278;47.952;21.714;2024-01-06T01:17:29;99644.91;;;5.69;100.00
43071;BME280;36278;47.952;21.714;2024-01-06T01:19:55;99646.38;;;5.60;100.00
43071;BME280;36278;47.952;21.714;2024-01-06T01:22:20;99646.25;;;5.61;100.00
43071;BME280;36278;47.952;21.714;2024-01-06T01:24:46;99646.91;;;5.65;100.00
43071;BME280;36278;47.952;21.714;2024-01-06T01:27:12;99647.03;;;5.63;100.00
43071;BME280;36278;47.952;21.714;2024-01-06T01:29:37;99643.56;;;5.63;100.00
43071;BME280;36278;47.952;21.714;2024-01-06T01:32:03;99640.59;;;5.55;100.00
43071;BME280;36278;47.952;21.714;2024-01-06T01:34:29;99629.97;;;5.56;100.00
43071;BME280;36278;47.952;21.714;2024-01-06T01:36:55;99637.19;;;5.53;100.00
43071;BME280;36278;47.952;21.714;2024-01-06T01:39:21;99624.16;;;5.39;100.00
43071;BME280;36278;47.952;21.714;2024-01-06T01:41:46;99624.22;;;5.37;100.00
43071;BME280;36278;47.952;21.714;2024-01-06T01:44:12;99620.69;;;5.38;100.00
43071;BME280;36278;47.952;21.714;2024-01-06T01:46:38;99609.84;;;5.43;100.00
43071;BME280;36278;47.952;21.714;2024-01-06T01:49:04;99617.41;;;5.34;100.00
43071;BME280;36278;47.952;21.714;2024-01-06T01:51:33;99603.09;;;5.26;100.00
43071;BME280;36278;47.952;21.714;2024-01-06T01:54:03;99597.94;;;5.24;100.00
43071;BME280;36278;47.952;21.714;2024-01-06T01:56:31;99603.63;;;5.31;100.00
43071;BME280;36278;47.952;21.714;2024-01-06T01:59:09;99602.03;;;5.28;100.00
43071;BME280;36278;47.952;21.714;2024-01-06T02:01:36;99600.56;;;5.24;100.00
43071;BME280;36278;47.952;21.714;2024-01-06T02:04:02;99600.91;;;5.32;100.00
43071;BME280;36278;47.952;21.714;2024-01-06T02:06:28;99600.34;;;5.27;100.00
43071;BME280;36278;47.952;21.714;2024-01-06T02:08:54;99590.06;;;5.24;100.00
43071;BME280;36278;47.952;21.714;2024-01-06T02:11:19;99588.38;;;5.23;100.00
43071;BME280;36278;47.952;21.714;2024-01-06T02:13:45;99583.31;;;5.20;100.00
43071;BME280;36278;47.952;21.714;2024-01-06T02:16:10;99583.97;;;5.24;100.00
43071;BME280;36278;47.952;21.714;2024-01-06T02:18:36;99583.41;;;5.19;100.00
43071;BME280;36278;47.952;21.714;2024-01-06T02:21:02;99581.19;;;5.13;100.00
43071;BME280;36278;47.952;21.714;2024-01-06T02:23:29;99576.25;;;5.08;100.00
43071;BME280;36278;47.952;21.714;2024-01-06T02:25:56;99584.75;;;5.12;100.00
43071;BME280;36278;47.952;21.714;2024-01-06T02:28:21;99585.75;;;5.23;100.00
43071;BME280;36278;47.952;21.714;2024-01-06T02:30:48;99581.53;;;5.21;100.00
43071;BME280;36278;47.952;21.714;2024-01-06T02:33:14;99574.06;;;5.15;100.00
43071;BME280;36278;47.952;21.714;2024-01-06T02:35:40;99568.81;;;5.15;100.00
43071;BME280;36278;47.952;21.714;2024-01-06T02:38:06;99572.19;;;5.17;100.00
43071;BME280;36278;47.952;21.714;2024-01-06T02:40:33;99569.66;;;5.15;100.00
43071;BME280;36278;47.952;21.714;2024-01-06T02:42:59;99556.72;;;5.12;100.00
43071;BME280;36278;47.952;21.714;2024-01-06T02:45:24;99563.13;;;5.08;100.00
43071;BME280;36278;47.952;21.714;2024-01-06T02:47:50;99558.72;;;5.09;100.00
43071;BME280;36278;47.952;21.714;2024-01-06T02:50:16;99556.03;;;4.96;100.00
43071;BME280;36278;47.952;21.714;2024-01-06T02:52:43;99554.31;;;4.82;100.00
43071;BME280;36278;47.952;21.714;2024-01-06T02:55:09;99548.31;;;4.80;100.00
43071;BME280;36278;47.952;21.714;2024-01-06T02:57:34;99547.28;;;4.83;100.00
43071;BME280;36278;47.952;21.714;2024-01-06T03:00:01;99547.06;;;4.86;100.00
43071;BME280;36278;47.952;21.714;2024-01-06T03:02:26;99541.59;;;4.76;100.00
43071;BME280;36278;47.952;21.714;2024-01-06T03:04:52;99544.75;;;4.81;100.00
43071;BME280;36278;47.952;21.714;2024-01-06T03:07:17;99536.78;;;4.83;100.00
43071;BME280;36278;47.952;21.714;2024-01-06T03:09:43;99535.78;;;4.71;100.00
43071;BME280;36278;47.952;21.714;2024-01-06T03:12:08;99549.09;;;4.68;100.00
43071;BME280;36278;47.952;21.714;2024-01-06T03:14:35;99540.06;;;4.72;100.00
43071;BME280;36278;47.952;21.714;2024-01-06T03:17:00;99534.81;;;4.72;100.00
43071;BME280;36278;47.952;21.714;2024-01-06T03:19:26;99532.31;;;4.70;100.00
43071;BME280;36278;47.952;21.714;2024-01-06T03:21:53;99538.22;;;4.74;100.00
43071;BME280;36278;47.952;21.714;2024-01-06T03:24:19;99539.50;;;4.81;100.00
43071;BME280;36278;47.952;21.714;2024-01-06T03:26:45;99534.16;;;4.83;100.00
43071;BME280;36278;47.952;21.714;2024-01-06T03:29:10;99540.88;;;4.87;100.00
43071;BME280;36278;47.952;21.714;2024-01-06T03:31:37;99538.91;;;4.90;100.00
43071;BME280;36278;47.952;21.714;2024-01-06T03:34:02;99529.38;;;4.89;100.00
43071;BME280;36278;47.952;21.714;2024-01-06T03:36:27;99538.25;;;4.87;100.00
43071;BME280;36278;47.952;21.714;2024-01-06T03:38:53;99513.56;;;4.76;100.00
43071;BME280;36278;47.952;21.714;2024-01-06T03:41:19;99538.72;;;4.93;100.00
43071;BME280;36278;47.952;21.714;2024-01-06T03:43:44;99532.41;;;4.96;100.00
43071;BME280;36278;47.952;21.714;2024-01-06T03:46:10;99533.66;;;4.90;100.00
43071;BME280;36278;47.952;21.714;2024-01-06T03:48:35;99530.28;;;4.88;100.00
43071;BME280;36278;47.952;21.714;2024-01-06T03:51:02;99525.69;;;4.92;100.00
43071;BME280;36278;47.952;21.714;2024-01-06T03:53:27;99527.81;;;4.99;100.00
43071;BME280;36278;47.952;21.714;2024-01-06T03:55:53;99529.25;;;4.91;100.00
43071;BME280;36278;47.952;21.714;2024-01-06T03:58:18;99542.66;;;4.86;100.00
43071;BME280;36278;47.952;21.714;2024-01-06T04:00:44;99536.47;;;4.87;100.00
43071;BME280;36278;47.952;21.714;2024-01-06T04:03:09;99541.03;;;4.71;100.00
43071;BME280;36278;47.952;21.714;2024-01-06T04:05:35;99547.22;;;4.70;100.00
43071;BME280;36278;47.952;21.714;2024-01-06T04:08:00;99533.63;;;4.63;100.00
43071;BME280;36278;47.952;21.714;2024-01-06T04:10:26;99539.25;;;4.71;100.00
43071;BME280;36278;47.952;21.714;2024-01-06T04:12:51;99531.28;;;4.73;100.00
43071;BME280;36278;47.952;21.714;2024-01-06T04:15:17;99537.03;;;4.92;100.00
43071;BME280;36278;47.952;21.714;2024-01-06T04:17:43;99535.88;;;4.96;100.00
43071;BME280;36278;47.952;21.714;2024-01-06T04:20:09;99537.94;;;5.05;100.00
43071;BME280;36278;47.952;21.714;2024-01-06T04:22:38;99538.09;;;5.02;100.00
43071;BME280;36278;47.952;21.714;2024-01-06T04:25:04;99528.34;;;5.04;100.00
43071;BME280;36278;47.952;21.714;2024-01-06T04:27:29;99536.47;;;5.14;100.00
43071;BME280;36278;47.952;21.714;2024-01-06T04:29:56;99536.03;;;5.07;100.00
43071;BME280;36278;47.952;21.714;2024-01-06T04:32:22;99542.25;;;5.19;100.00
43071;BME280;36278;47.952;21.714;2024-01-06T04:34:48;99536.88;;;5.21;100.00
43071;BME280;36278;47.952;21.714;2024-01-06T04:37:13;99548.88;;;5.25;100.00
43071;BME280;36278;47.952;21.714;2024-01-06T04:39:40;99536.50;;;5.27;100.00
43071;BME280;36278;47.952;21.714;2024-01-06T04:42:06;99536.50;;;5.27;100.00
43071;BME280;36278;47.952;21.714;2024-01-06T04:44:31;99533.13;;;5.25;100.00
43071;BME280;36278;47.952;21.714;2024-01-06T04:46:57;99536.66;;;5.11;100.00
43071;BME280;36278;47.952;21.714;2024-01-06T04:49:22;99546.44;;;5.09;100.00
43071;BME280;36278;47.952;21.714;2024-01-06T04:51:48;99541.19;;;5.09;100.00
43071;BME280;36278;47.952;21.714;2024-01-06T04:54:13;99546.53;;;5.07;100.00
43071;BME280;36278;47.952;21.714;2024-01-06T04:56:39;99541.03;;;4.98;100.00
43071;BME280;36278;47.952;21.714;2024-01-06T04:59:05;99538.06;;;4.90;100.00
43071;BME280;36278;47.952;21.714;2024-01-06T05:01:30;99549.66;;;5.00;100.00
43071;BME280;36278;47.952;21.714;2024-01-06T05:03:56;99548.72;;;5.01;100.00
43071;BME280;36278;47.952;21.714;2024-01-06T05:06:23;99556.59;;;5.01;100.00
43071;BME280;36278;47.952;21.714;2024-01-06T05:08:48;99554.06;;;4.99;100.00
43071;BME280;36278;47.952;21.714;2024-01-06T05:11:14;99541.34;;;4.93;100.00
43071;BME280;36278;47.952;21.714;2024-01-06T05:13:40;99555.53;;;5.03;100.00
43071;BME280;36278;47.952;21.714;2024-01-06T05:16:07;99541.69;;;5.01;100.00
43071;BME280;36278;47.952;21.714;2024-01-06T05:18:33;99532.75;;;5.04;100.00
43071;BME280;36278;47.952;21.714;2024-01-06T05:20:58;99543.41;;;5.15;100.00
43071;BME280;36278;47.952;21.714;2024-01-06T05:23:24;99546.53;;;5.07;100.00
43071;BME280;36278;47.952;21.714;2024-01-06T05:25:49;99539.72;;;5.05;100.00
43071;BME280;36278;47.952;21.714;2024-01-06T05:28:15;99532.06;;;5.15;100.00
43071;BME280;36278;47.952;21.714;2024-01-06T05:30:40;99536.56;;;5.13;100.00
43071;BME280;36278;47.952;21.714;2024-01-06T05:33:09;99537.31;;;5.15;100.00
43071;BME280;36278;47.952;21.714;2024-01-06T05:35:35;99530.56;;;5.11;100.00
43071;BME280;36278;47.952;21.714;2024-01-06T05:38:00;99528.16;;;5.07;100.00
43071;BME280;36278;47.952;21.714;2024-01-06T05:40:26;99528.16;;;5.07;100.00
43071;BME280;36278;47.952;21.714;2024-01-06T05:42:51;99538.06;;;5.17;100.00
43071;BME280;36278;47.952;21.714;2024-01-06T05:45:21;99530.91;;;5.19;100.00
43071;BME280;36278;47.952;21.714;2024-01-06T05:47:46;99535.81;;;5.11;100.00
43071;BME280;36278;47.952;21.714;2024-01-06T05:50:11;99531.13;;;5.16;100.00
43071;BME280;36278;47.952;21.714;2024-01-06T05:52:40;99520.94;;;5.24;100.00
43071;BME280;36278;47.952;21.714;2024-01-06T05:55:06;99520.44;;;5.31;100.00
43071;BME280;36278;47.952;21.714;2024-01-06T05:57:32;99510.78;;;5.32;100.00
43071;BME280;36278;47.952;21.714;2024-01-06T05:59:57;99520.88;;;5.38;100.00
43071;BME280;36278;47.952;21.714;2024-01-06T06:02:22;99522.00;;;5.34;100.00
43071;BME280;36278;47.952;21.714;2024-01-06T06:04:48;99520.44;;;5.31;100.00
43071;BME280;36278;47.952;21.714;2024-01-06T06:07:13;99517.41;;;5.38;100.00
43071;BME280;36278;47.952;21.714;2024-01-06T06:09:39;99514.78;;;5.38;100.00
43071;BME280;36278;47.952;21.714;2024-01-06T06:12:05;99517.59;;;5.34;100.00
43071;BME280;36278;47.952;21.714;2024-01-06T06:14:31;99513.19;;;5.35;100.00
43071;BME280;36278;47.952;21.714;2024-01-06T06:16:56;99514.88;;;5.36;100.00
43071;BME280;36278;47.952;21.714;2024-01-06T06:19:22;99517.31;;;5.39;100.00
43071;BME280;36278;47.952;21.714;2024-01-06T06:21:47;99515.41;;;5.41;100.00
43071;BME280;36278;47.952;21.714;2024-01-06T06:24:13;99515.31;;;5.43;100.00
43071;BME280;36278;47.952;21.714;2024-01-06T06:26:38;99519.59;;;5.44;100.00
43071;BME280;36278;47.952;21.714;2024-01-06T06:29:06;99516.69;;;5.48;100.00
43071;BME280;36278;47.952;21.714;2024-01-06T06:31:31;99526.03;;;5.52;100.00
43071;BME280;36278;47.952;21.714;2024-01-06T06:33:56;99528.34;;;5.57;100.00
43071;BME280;36278;47.952;21.714;2024-01-06T06:36:22;99534.22;;;5.60;100.00
43071;BME280;36278;47.952;21.714;2024-01-06T06:38:47;99531.19;;;5.67;100.00
43071;BME280;36278;47.952;21.714;2024-01-06T06:41:13;99525.94;;;5.67;100.00
43071;BME280;36278;47.952;21.714;2024-01-06T06:43:38;99531.91;;;5.69;100.00
43071;BME280;36278;47.952;21.714;2024-01-06T06:46:04;99532.56;;;5.72;100.00
43071;BME280;36278;47.952;21.714;2024-01-06T06:48:29;99534.88;;;5.77;100.00
43071;BME280;36278;47.952;21.714;2024-01-06T06:50:55;99534.69;;;5.80;100.00
43071;BME280;36278;47.952;21.714;2024-01-06T06:53:20;99530.88;;;5.84;100.00
43071;BME280;36278;47.952;21.714;2024-01-06T06:55:46;99507.75;;;5.76;100.00
43071;BME280;36278;47.952;21.714;2024-01-06T06:58:12;99525.84;;;5.94;100.00
43071;BME280;36278;47.952;21.714;2024-01-06T07:00:37;99530.81;;;5.98;100.00
43071;BME280;36278;47.952;21.714;2024-01-06T07:03:04;99535.66;;;6.04;100.00
43071;BME280;36278;47.952;21.714;2024-01-06T07:05:29;99517.03;;;6.07;100.00
43071;BME280;36278;47.952;21.714;2024-01-06T07:07:56;99525.44;;;6.12;100.00
43071;BME280;36278;47.952;21.714;2024-01-06T07:10:22;99521.75;;;6.15;100.00
43071;BME280;36278;47.952;21.714;2024-01-06T07:12:47;99521.63;;;6.29;99.85
43071;BME280;36278;47.952;21.714;2024-01-06T07:15:13;99521.41;;;6.32;99.35
43071;BME280;36278;47.952;21.714;2024-01-06T07:17:38;99526.22;;;6.38;98.67
43071;BME280;36278;47.952;21.714;2024-01-06T07:20:06;99524.97;;;6.44;98.73
43071;BME280;36278;47.952;21.714;2024-01-06T07:22:32;99512.53;;;6.46;99.62
43071;BME280;36278;47.952;21.714;2024-01-06T07:25:00;99514.38;;;6.57;98.20
43071;BME280;36278;47.952;21.714;2024-01-06T07:27:25;99514.38;;;6.57;97.63
43071;BME280;36278;47.952;21.714;2024-01-06T07:29:51;99512.75;;;6.67;98.30
43071;BME280;36278;47.952;21.714;2024-01-06T07:32:16;99503.72;;;6.71;96.98
43071;BME280;36278;47.952;21.714;2024-01-06T07:34:42;99517.38;;;6.76;95.31
43071;BME280;36278;47.952;21.714;2024-01-06T07:37:08;99507.34;;;6.81;96.42
43071;BME280;36278;47.952;21.714;2024-01-06T07:39:34;99506.06;;;6.87;96.19
43071;BME280;36278;47.952;21.714;2024-01-06T07:42:00;99507.50;;;6.91;97.20
43071;BME280;36278;47.952;21.714;2024-01-06T07:44:25;99502.75;;;6.96;96.22
43071;BME280;36278;47.952;21.714;2024-01-06T07:46:52;99502.31;;;7.02;95.42
43071;BME280;36278;47.952;21.714;2024-01-06T07:49:17;99503.03;;;7.04;94.61
43071;BME280;36278;47.952;21.714;2024-01-06T07:51:43;99508.69;;;7.11;94.50
43071;BME280;36278;47.952;21.714;2024-01-06T07:54:09;99498.88;;;7.13;95.47
43071;BME280;36278;47.952;21.714;2024-01-06T07:56:36;99509.41;;;7.13;94.87
43071;BME280;36278;47.952;21.714;2024-01-06T07:59:02;99507.00;;;7.10;94.93
43071;BME280;36278;47.952;21.714;2024-01-06T08:01:28;99513.59;;;7.15;94.79
43071;BME280;36278;47.952;21.714;2024-01-06T08:03:53;99520.88;;;7.12;94.83
43071;BME280;36278;47.952;21.714;2024-01-06T08:06:19;99509.53;;;7.11;95.45
43071;BME280;36278;47.952;21.714;2024-01-06T08:08:45;99518.78;;;7.17;96.84
43071;BME280;36278;47.952;21.714;2024-01-06T08:11:11;99517.91;;;7.16;98.48
43071;BME280;36278;47.952;21.714;2024-01-06T08:13:36;99526.03;;;7.13;100.00
43071;BME280;36278;47.952;21.714;2024-01-06T08:16:02;99523.75;;;7.09;100.00
43071;BME280;36278;47.952;21.714;2024-01-06T08:18:28;99522.19;;;7.06;100.00
43071;BME280;36278;47.952;21.714;2024-01-06T08:20:53;99532.50;;;7.09;100.00
43071;BME280;36278;47.952;21.714;2024-01-06T08:23:19;99520.63;;;7.03;100.00
43071;BME280;36278;47.952;21.714;2024-01-06T08:25:46;99535.84;;;7.11;100.00
43071;BME280;36278;47.952;21.714;2024-01-06T08:28:11;99541.84;;;7.13;100.00
43071;BME280;36278;47.952;21.714;2024-01-06T08:30:37;99529.75;;;7.11;100.00
43071;BME280;36278;47.952;21.714;2024-01-06T08:33:03;99536.56;;;7.13;100.00
43071;BME280;36278;47.952;21.714;2024-01-06T08:35:29;99532.25;;;7.12;100.00
43071;BME280;36278;47.952;21.714;2024-01-06T08:37:55;99535.13;;;7.09;100.00
43071;BME280;36278;47.952;21.714;2024-01-06T08:40:21;99521.56;;;7.02;100.00
43071;BME280;36278;47.952;21.714;2024-01-06T08:42:46;99523.84;;;7.07;100.00
43071;BME280;36278;47.952;21.714;2024-01-06T08:45:12;99548.09;;;7.23;100.00
43071;BME280;36278;47.952;21.714;2024-01-06T08:47:37;99550.28;;;7.29;100.00
43071;BME280;36278;47.952;21.714;2024-01-06T08:50:03;99547.88;;;7.26;100.00
43071;BME280;36278;47.952;21.714;2024-01-06T08:52:29;99548.94;;;7.24;100.00
43071;BME280;36278;47.952;21.714;2024-01-06T08:54:55;99547.13;;;7.24;100.00
43071;BME280;36278;47.952;21.714;2024-01-06T08:57:20;99549.69;;;7.26;100.00
43071;BME280;36278;47.952;21.714;2024-01-06T08:59:46;99561.19;;;7.25;100.00
43071;BME280;36278;47.952;21.714;2024-01-06T09:02:11;99553.03;;;7.28;100.00
43071;BME280;36278;47.952;21.714;2024-01-06T09:04:37;99561.66;;;7.30;100.00
43071;BME280;36278;47.952;21.714;2024-01-06T09:07:03;99558.44;;;7.26;100.00
43071;BME280;36278;47.952;21.714;2024-01-06T09:09:29;99556.50;;;7.28;100.00
43071;BME280;36278;47.952;21.714;2024-01-06T09:11:55;99555.56;;;7.29;100.00
43071;BME280;36278;47.952;21.714;2024-01-06T09:14:20;99550.03;;;7.32;100.00
43071;BME280;36278;47.952;21.714;2024-01-06T09:16:46;99534.84;;;7.25;100.00
43071;BME280;36278;47.952;21.714;2024-01-06T09:19:11;99545.53;;;7.35;100.00
43071;BME280;36278;47.952;21.714;2024-01-06T09:21:37;99549.72;;;7.37;100.00
43071;BME280;36278;47.952;21.714;2024-01-06T09:24:02;99553.19;;;7.38;100.00
43071;BME280;36278;47.952;21.714;2024-01-06T09:26:32;99543.50;;;7.38;100.00
43071;BME280;36278;47.952;21.714;2024-01-06T09:29:00;99542.78;;;7.36;100.00
43071;BME280;36278;47.952;21.714;2024-01-06T09:31:26;99538.84;;;7.42;100.00
43071;BME280;36278;47.952;21.714;2024-01-06T09:33:51;99542.41;;;7.41;100.00
43071;BME280;36278;47.952;21.714;2024-01-06T09:36:17;99532.63;;;7.43;100.00
43071;BME280;36278;47.952;21.714;2024-01-06T09:38:43;99520.16;;;7.45;100.00
43071;BME280;36278;47.952;21.714;2024-01-06T09:41:08;99524.84;;;7.52;100.00
43071;BME280;36278;47.952;21.714;2024-01-06T09:43:34;99521.38;;;7.52;100.00
43071;BME280;36278;47.952;21.714;2024-01-06T09:48:39;99523.66;;;7.56;100.00
43071;BME280;36278;47.952;21.714;2024-01-06T09:51:11;99524.28;;;7.60;100.00
43071;BME280;36278;47.952;21.714;2024-01-06T09:53:43;99516.59;;;7.57;100.00
43071;BME280;36278;47.952;21.714;2024-01-06T09:56:10;99509.75;;;7.54;100.00
43071;BME280;36278;47.952;21.714;2024-01-06T09:58:38;99508.66;;;7.57;100.00
43071;BME280;36278;47.952;21.714;2024-01-06T10:01:05;99509.19;;;7.62;100.00
43071;BME280;36278;47.952;21.714;2024-01-06T10:03:31;99499.97;;;7.68;100.00
43071;BME280;36278;47.952;21.714;2024-01-06T10:05:59;99494.44;;;7.71;100.00
43071;BME280;36278;47.952;21.714;2024-01-06T10:08:29;99488.59;;;7.78;100.00
43071;BME280;36278;47.952;21.714;2024-01-06T10:10:54;99493.38;;;7.73;100.00
43071;BME280;36278;47.952;21.714;2024-01-06T10:13:20;99490.84;;;7.72;100.00
43071;BME280;36278;47.952;21.714;2024-01-06T10:15:45;99483.19;;;7.69;100.00
43071;BME280;36278;47.952;21.714;2024-01-06T10:18:13;99484.03;;;7.69;100.00
43071;BME280;36278;47.952;21.714;2024-01-06T10:20:38;99485.59;;;7.72;100.00
43071;BME280;36278;47.952;21.714;2024-01-06T10:23:05;99476.25;;;7.68;100.00
43071;BME280;36278;47.952;21.714;2024-01-06T10:25:30;99469.50;;;7.64;100.00
43071;BME280;36278;47.952;21.714;2024-01-06T10:27:56;99453.81;;;7.51;100.00
43071;BME280;36278;47.952;21.714;2024-01-06T10:30:21;99465.31;;;7.61;100.00
43071;BME280;36278;47.952;21.714;2024-01-06T10:32:47;99464.38;;;7.62;100.00
43071;BME280;36278;47.952;21.714;2024-01-06T10:35:12;99462.09;;;7.69;100.00
43071;BME280;36278;47.952;21.714;2024-01-06T10:37:41;99456.97;;;7.67;100.00
43071;BME280;36278;47.952;21.714;2024-01-06T10:42:36;99446.88;;;7.72;100.00
43071;BME280;36278;47.952;21.714;2024-01-06T10:45:02;99447.34;;;7.88;100.00
43071;BME280;36278;47.952;21.714;2024-01-06T10:47:29;99446.28;;;7.91;100.00
43071;BME280;36278;47.952;21.714;2024-01-06T10:49:59;99443.63;;;8.13;100.00
43071;BME280;36278;47.952;21.714;2024-01-06T10:52:27;99439.44;;;8.11;100.00
43071;BME280;36278;47.952;21.714;2024-01-06T10:54:54;99438.34;;;8.13;100.00
43071;BME280;36278;47.952;21.714;2024-01-06T10:57:20;99436.91;;;8.21;100.00
43071;BME280;36278;47.952;21.714;2024-01-06T10:59:49;99445.66;;;8.21;100.00
43071;BME280;36278;47.952;21.714;2024-01-06T11:02:15;99428.41;;;8.39;100.00
43071;BME280;36278;47.952;21.714;2024-01-06T11:04:48;99432.31;;;8.45;100.00
43071;BME280;36278;47.952;21.714;2024-01-06T11:07:20;99423.44;;;8.46;100.00
43071;BME280;36278;47.952;21.714;2024-01-06T11:09:57;99423.91;;;8.51;100.00
43071;BME280;36278;47.952;21.714;2024-01-06T11:12:24;99418.63;;;8.51;100.00
43071;BME280;36278;47.952;21.714;2024-01-06T11:14:53;99423.06;;;8.51;100.00
43071;BME280;36278;47.952;21.714;2024-01-06T11:17:53;99419.81;;;8.58;100.00
43071;BME280;36278;47.952;21.714;2024-01-06T11:20:22;99411.75;;;8.60;100.00
43071;BME280;36278;47.952;21.714;2024-01-06T11:22:48;99410.97;;;8.48;100.00
43071;BME280;36278;47.952;21.714;2024-01-06T11:25:15;99401.25;;;8.49;100.00
43071;BME280;36278;47.952;21.714;2024-01-06T11:27:43;99396.94;;;8.48;100.00
43071;BME280;36278;47.952;21.714;2024-01-06T11:30:22;99393.97;;;8.41;100.00
43071;BME280;36278;47.952;21.714;2024-01-06T11:32:53;99386.88;;;8.41;100.00
43071;BME280;36278;47.952;21.714;2024-01-06T11:35:21;99400.06;;;8.41;100.00
43071;BME280;36278;47.952;21.714;2024-01-06T11:43:07;99383.16;;;8.33;100.00
43071;BME280;36278;47.952;21.714;2024-01-06T11:45:34;99375.09;;;8.34;100.00
43071;BME280;36278;47.952;21.714;2024-01-06T11:48:04;99375.97;;;8.35;100.00
43071;BME280;36278;47.952;21.714;2024-01-06T11:50:37;99374.38;;;8.43;100.00
43071;BME280;36278;47.952;21.714;2024-01-06T11:53:04;99366.69;;;8.52;100.00
43071;BME280;36278;47.952;21.714;2024-01-06T11:55:30;99371.47;;;8.58;100.00
43071;BME280;36278;47.952;21.714;2024-01-06T11:58:00;99371.19;;;8.61;100.00
43071;BME280;36278;47.952;21.714;2024-01-06T12:00:29;99366.63;;;8.63;100.00
43071;BME280;36278;47.952;21.714;2024-01-06T12:02:59;99372.03;;;8.61;100.00
43071;BME280;36278;47.952;21.714;2024-01-06T12:05:25;99360.59;;;8.72;100.00
43071;BME280;36278;47.952;21.714;2024-01-06T12:07:56;99362.13;;;8.75;100.00
43071;BME280;36278;47.952;21.714;2024-01-06T12:10:23;99367.84;;;8.59;100.00
43071;BME280;36278;47.952;21.714;2024-01-06T12:12:59;99367.72;;;8.60;100.00
43071;BME280;36278;47.952;21.714;2024-01-06T12:15:26;99357.91;;;8.51;100.00
43071;BME280;36278;47.952;21.714;2024-01-06T12:17:52;99362.56;;;8.59;100.00
43071;BME280;36278;47.952;21.714;2024-01-06T12:20:18;99364.25;;;8.60;100.00
43071;BME280;36278;47.952;21.714;2024-01-06T12:22:43;99370.69;;;8.67;100.00
43071;BME280;36278;47.952;21.714;2024-01-06T12:25:10;99360.34;;;8.75;100.00
43071;BME280;36278;47.952;21.714;2024-01-06T12:27:35;99365.09;;;8.81;100.00
43071;BME280;36278;47.952;21.714;2024-01-06T12:30:01;99358.53;;;8.76;100.00
43071;BME280;36278;47.952;21.714;2024-01-06T12:32:28;99363.88;;;8.85;100.00
43071;BME280;36278;47.952;21.714;2024-01-06T12:34:54;99364.66;;;8.76;100.00
43071;BME280;36278;47.952;21.714;2024-01-06T12:37:23;99357.19;;;8.81;100.00
43071;BME280;36278;47.952;21.714;2024-01-06T12:39:50;99361.22;;;8.85;100.00
43071;BME280;36278;47.952;21.714;2024-01-06T12:42:17;99357.19;;;8.81;100.00
43071;BME280;36278;47.952;21.714;2024-01-06T12:44:42;99364.66;;;8.76;100.00
43071;BME280;36278;47.952;21.714;2024-01-06T12:47:08;99358.03;;;8.82;100.00
43071;BME280;36278;47.952;21.714;2024-01-06T12:49:33;99366.38;;;8.87;100.00
43071;BME280;36278;47.952;21.714;2024-01-06T12:51:59;99368.19;;;8.86;100.00
43071;BME280;36278;47.952;21.714;2024-01-06T12:54:25;99365.47;;;8.77;100.00
43071;BME280;36278;47.952;21.714;2024-01-06T12:56:50;99369.66;;;8.58;100.00